NZDT,Max TemperatureF,Mean TemperatureF,Min TemperatureF,Max Dew PointF,MeanDew PointF,Min DewpointF,Max Humidity, Mean Humidity, Min Humidity, Max Sea Level PressureIn, Mean Sea Level PressureIn, Min Sea Level PressureIn, Max VisibilityMiles, Mean VisibilityMiles, Min VisibilityMiles, Max Wind SpeedMPH, Mean Wind SpeedMPH, Max Gust SpeedMPH,PrecipitationIn, CloudCover, Events, WindDirDegrees
2012-11-1,73,60,48,55,50,43,94,76,33,29.95,29.77,29.65,6,6,6,16,8,,0.00,4,,39
2012-11-2,75,65,55,48,41,36,72,45,24,29.65,29.47,29.36,,,,18,8,33,0.00,,,333
2012-11-3,55,48,41,48,42,36,93,80,54,29.86,29.55,29.33,6,6,6,24,10,,0.00,6,Rain,223
2012-11-4,55,46,37,43,38,32,93,72,47,30.01,29.95,29.86,6,6,6,17,6,,0.00,3,,29
2012-11-5,51,44,37,43,38,34,93,75,58,30.36,30.15,29.95,6,6,6,17,8,,0.00,6,Rain,206
2012-11-6,50,44,39,39,35,32,87,70,50,30.45,30.41,30.36,6,6,6,15,9,,0.00,5,,225
2012-11-7,57,48,39,41,38,34,87,70,51,30.42,30.38,30.33,6,6,6,12,5,,0.00,4,,220
2012-11-8,57,42,28,45,40,28,100,81,63,30.36,30.32,30.24,6,6,6,17,6,,0.00,1,Fog,64
2012-11-9,66,57,48,52,48,43,93,75,48,30.24,30.10,30.04,,,,15,10,,0.00,,,75
2012-11-10,68,52,35,54,44,36,100,70,37,30.06,29.91,29.74,6,6,1,17,5,,0.00,4,Fog,340
2012-11-11,68,59,50,50,45,37,94,61,43,29.86,29.65,29.59,6,6,5,24,11,36,0.00,3,Rain,274
2012-11-12,53,48,44,46,42,37,100,79,58,30.18,30.08,29.86,6,6,6,23,17,,0.00,6,Rain,212
2012-11-13,53,48,42,43,40,37,100,76,54,30.18,30.06,29.92,6,6,6,16,5,,0.00,4,Rain,73
2012-11-14,60,48,35,46,42,36,100,77,59,29.89,29.76,29.68,6,6,6,12,7,,0.00,2,,50
2012-11-15,60,53,46,50,47,45,94,82,63,29.74,29.69,29.65,6,6,6,10,5,,0.00,4,,151
2012-11-16,62,52,42,52,47,43,100,80,55,29.77,29.70,29.59,6,6,6,21,6,,0.00,2,Fog,104
2012-11-17,64,52,39,52,45,37,100,79,52,29.59,29.44,29.33,6,6,6,23,4,,0.00,4,Rain,89
2012-11-18,59,52,46,46,44,39,93,74,48,29.92,29.62,29.39,6,6,6,23,13,32,0.00,5,Rain,220
2012-11-19,57,50,44,46,43,41,93,73,55,30.04,29.98,29.95,6,6,6,17,7,,0.00,5,,55
2012-11-20,57,54,46,50,47,41,100,81,67,30.12,30.07,30.04,6,6,6,13,7,,0.00,5,,94
2012-11-21,64,53,42,50,45,41,93,73,52,30.04,29.99,29.92,6,6,6,15,8,,0.00,2,,109
2012-11-22,62,55,48,50,47,43,82,73,59,30.04,29.90,29.77,6,6,6,26,11,,0.00,5,,61
2012-11-23,64,57,50,54,49,45,94,76,49,29.83,29.76,29.68,6,6,6,20,12,,0.00,3,,120
2012-11-24,66,57,48,52,48,46,94,74,49,29.98,29.92,29.83,6,6,6,20,8,,0.00,3,,123
2012-11-25,69,61,53,55,50,36,94,68,32,29.95,29.80,29.68,6,6,6,14,11,,0.00,4,,63
2012-11-26,64,58,51,50,47,39,88,69,40,29.86,29.79,29.71,6,6,6,16,10,,0.00,5,,29
2012-11-27,66,52,37,54,48,37,100,75,39,29.86,29.79,29.68,6,6,6,15,7,,0.00,1,Fog,47
2012-11-28,64,58,53,54,50,48,94,77,63,29.80,29.75,29.65,6,6,6,24,10,,0.00,5,,72
2012-11-29,57,49,41,50,43,37,100,82,55,29.77,29.70,29.65,6,6,6,17,7,,0.00,5,Fog-Rain,205
2012-11-30,55,48,41,43,39,34,100,72,47,29.98,29.87,29.80,6,6,6,22,10,,0.00,3,Rain,228